Terminal Aerodrome Forecast
Issued by NWS

Home | Current Version | Previous Version | Text Only | Print | Product List | Glossary On
Versions: 1 2 3 4 5 6 7 8 9 10 11 12 13 14 15
000
FTUS45 KTFX 031120
TAFHVR
TAF
KHVR 031120Z 0312/0412 08011KT P6SM SKC
     FM031900 10015G22KT P6SM SCT150
     FM040300 11018KT P6SM FEW070 SCT150=

USA.gov is the U.S. government's official web portal to all federal, state and local government web resources and services.